Ride Results

Spring Mtn (17-05-2014)
Ride distance: 80.0 km

Outcomes - Spring Mtn (17-05-2014)
Division No. of Entries Retired / DNE Completed Withdrawn Ineligible V/O Percentage Completed
HW 7 - 5 1 - 1 71.43%
MW 22 - 17 1 - 4 77.27%
LW 18 - 13 1 - 4 72.22%
JN 6 - 5 1 - - 83.33%
Totals 53 - 40 4 - 9 75.47%
Results - Spring Mtn (17-05-2014)
No. Rider Horse Place Time Leg Speeds Total
Km/Hr
H/R bpm
Heavyweight
16 Greg Lyon Chingford Just Dreaming 1 (BC) 5:37:00 15.4, 13.1 14.24 29, 45, 58 (Avg:51)
35 Gary Surch Lenannlaw Will Travel 2 6:28:00 13.1, 11.6 12.37 37, 42, 50 (Avg:46)
30 Robyn Pembroke Mt Eerwah Romonous 3 6:41:00 13.2, 10.9 11.97 35, 41, 42 (Avg:41)
45 Kathryn Priol Royal Windsor Jacob 4 7:24:00 11.3, 10.3 10.81 38, 43, 51 (Avg:47)
37 Andrea Nix Rowallan Rufous 5 7:56:00 9.9, 10.1 10.08 38, 42, 48 (Avg:45)
4 Greg Garred Shannonwood Y-Shine Heart Rate L2 0:00:00 12.1, 10.1 - 40, 47, 80 (Avg:63)
21 Ricky Petersen Brookleigh Angelina-Jolie Withdrawn L2 0:00:00 - - 33, 40, 45 (Avg:42)
Middleweight
44 Natasha Willemse Hillbrae Alec 1 (BC) 4:38:00 18.3, 16.3 17.27 34, 38, 44 (Avg:41)
52 Akhmed Pshunov Atticus 2 5:04:00 15.4, 16.1 15.79 38, 49, 55 (Avg:52)
31 Lauren Trenkner Woodbourne Masindi 3 5:45:00 14.4, 13.4 13.91 39, 53, 58 (Avg:55)
39 Marion Lengronne Annordean Balin 4 5:46:00 13.9, 13.7 13.87 36, 47, 51 (Avg:49)
29 Danielle Cullen Mt Eerwah Silver Arafina 5 6:41:00 13.2, 10.9 11.97 26, 33, 38 (Avg:35)
26 Caroline Fitzgerald Lanamere Kudos 6 6:43:00 12.8, 11.1 11.91 34, 43, 48 (Avg:45)
8 Liz Kirk Dunwingeri Aasalah 7 6:49:00 12.6, 10.9 11.74 32, 42, 49 (Avg:45)
55 Sasha Laws-King Heathfield's Khalukey 8 6:51:00 11.7, 11.5 11.68 33, 41, 46 (Avg:43)
46 Graysen Clarke Gray-Gun Solitary Rose 9 6:59:00 12.5, 10.5 11.46 43, 41, 50 (Avg:45)
22 Wendy Butler Oscar De La Hoya 10 7:00:00 12.4, 10.5 11.43 39, 42, 46 (Avg:44)
19 Angela Head Trinity 10 7:00:00 12.4, 10.5 11.43 33, 42, 55 (Avg:48)
11 Cathie Bruce Maske 12 7:27:00 12.0, 9.6 10.74 33, 45, 57 (Avg:51)
33 Simone Krahnen Glen Gannon Serenity 13 7:33:00 10.4, 10.7 10.60 31, 35, 47 (Avg:41)
3 Jenna Newton Egotist 14 7:45:00 10.9, 9.7 10.32 36, 48, 50 (Avg:49)
28 Rachel Goodwin Lanamere Diva 15 7:47:00 10.1, 10.4 10.28 36, 44, 53 (Avg:48)
25 Sabrina Stephens Cameo Silver Bellz 15 7:47:00 10.1, 10.4 10.28 36, 41, 48 (Avg:44)
36 Derryn Nix Dunbar Mahadik 17 7:56:00 9.9, 10.1 10.08 32, 37, 51 (Avg:44)
15 Michael Combe Nasr Heart Rate L2 0:00:00 13.7, 10.6 - 37, 44, 71 (Avg:57)
12 Sarah Curtis Lanamere Indianna Heart Rate L2 0:00:00 12.0, 9.6 - 41, 41, 64 (Avg:52)
23 Stephen Gray Longrun Mikami Withdrawn L1 0:00:00 - - 32, 50 (Avg:50)
2 Sue Gurtner Cedarton Achak Abornazine Lame L1 0:00:00 11.4 - 33, 48 (Avg:48)
17 Frank Scadding Roman Ashine Lame L1 0:00:00 9.9 - 48, 48 (Avg:48)
Lightweight
43 Alyce Capek Gums Kawielie 1 (BC) 4:38:00 18.3, 16.3 17.27 34, 47, 39 (Avg:43)
6 Fiona Fenech Bellarine Passiona 2 5:39:00 15.8, 12.7 14.16 34, 45, 48 (Avg:46)
1 Candice Gurtner Ya-Bint-Al-Hawa 2 5:39:00 15.8, 12.7 14.16 44, 49, 52 (Avg:50)
38 Annette Chamberlain Annordean Lady Lilly 4 5:46:00 13.9, 13.7 13.87 32, 46, 49 (Avg:47)
32 Pip Lillyman Zenith Park Shiloh 5 6:25:00 13.7, 11.3 12.47 33, 44, 50 (Avg:47)
41 Hannah Terry Ra-Anji Diva 6 6:28:00 13.9, 11.1 12.37 36, 40, 34 (Avg:37)
56 Leah Felton Heathfield's Flashrani 7 6:51:00 11.7, 11.5 11.68 35, 39, 47 (Avg:43)
13 Cindy Holden San Juan 7 6:51:00 13.9, 10.0 11.68 39, 44, 46 (Avg:45)
47 Antonia Jardine Performance Park Maverick 9 6:59:00 12.5, 10.5 11.46 33, 34, 38 (Avg:36)
14 Racheal Townsend Chingford Ashkalani 10 7:25:00 11.4, 10.2 10.79 34, 47, 43 (Avg:45)
7 Amaya Thomas Soleil De Minuit 11 7:26:00 11.7, 9.9 10.76 44, 43, 45 (Avg:44)
34 Erin Krahnen Moondarra Maher 12 7:33:00 10.4, 10.7 10.60 38, 47, 40 (Avg:43)
50 Mandy Doyle Briallyn Habib 13 7:59:00 9.1, 11.0 10.02 42, 43, 56 (Avg:49)
57 Vanessa Burton Whispering Winds Shatahn Heart Rate L2 0:00:00 11.3, 10.3 - 38, 50, 64 (Avg:57)
54 Alisha Darville Kynnum Park Jai Metabolics severe L2 0:00:00 12.0, 10.8 - 32, 43, 48 (Avg:45)
9 Carol Kite Holly Hill's Billy Boy Heart Rate L2 0:00:00 12.1, 8.8 - 37, 45, 65 (Avg:55)
53 Christal Rizk Silver Raider Heart Rate L2 0:00:00 14.0, 8.7 - 37, 49, 62 (Avg:55)
24 Karen Fields Lasca's Legacy Withdrawn L1 0:00:00 - - 38, 49 (Avg:49)
Junior
40 Tahlia Franke Woomera Thor 1 (BC) 5:46:00 13.9, 13.7 13.87 32, 42, 50 (Avg:46)
10 Amber Weale Dunbar Coco Chanel 2 6:39:00 13.1, 11.1 12.03 31, 38, 50 (Avg:44)
27 Timothy Fitzgerald Beaudacious te 3 6:43:00 12.8, 11.1 11.91 32, 42, 48 (Avg:45)
5 Jess Kennedy Shannonwood Bree 4 7:14:00 12.1, 10.1 11.06 33, 41, 45 (Avg:43)
48 Emma Dimech M.A. Rznamh 5 8:29:00 9.1, 9.6 9.43 40, 42, 46 (Avg:44)
49 Gemma Dickenson Kelkette Park Silver Edge Withdrawn L1 0:00:00 - - 44, 44 (Avg:44)